sensor_id;sensor_type;location;lat;lon;timestamp;pressure;altitude;pressure_sealevel;temperature;humidity
14818;BME280;7500;57.698;11.986;2022-11-04T00:01:09;100696.44;;;13.92;100.00
14818;BME280;7500;57.698;11.986;2022-11-04T00:03:37;100699.66;;;13.97;100.00
14818;BME280;7500;57.698;11.986;2022-11-04T00:06:04;100701.16;;;14.01;100.00
14818;BME280;7500;57.698;11.986;2022-11-04T00:08:31;100702.75;;;14.04;100.00
14818;BME280;7500;57.698;11.986;2022-11-04T00:10:59;100693.53;;;14.09;100.00
14818;BME280;7500;57.698;11.986;2022-11-04T00:13:44;100697.69;;;14.13;100.00
14818;BME280;7500;57.698;11.986;2022-11-04T00:16:11;100695.16;;;13.98;100.00
14818;BME280;7500;57.698;11.986;2022-11-04T00:18:58;100669.06;;;13.92;100.00
14818;BME280;7500;57.698;11.986;2022-11-04T00:21:25;100693.19;;;14.01;100.00
14818;BME280;7500;57.698;11.986;2022-11-04T00:24:11;100685.09;;;14.03;100.00
14818;BME280;7500;57.698;11.986;2022-11-04T00:26:55;100693.69;;;14.20;100.00
14818;BME280;7500;57.698;11.986;2022-11-04T00:29:40;100680.75;;;14.28;100.00
14818;BME280;7500;57.698;11.986;2022-11-04T00:32:07;100689.06;;;14.36;100.00
14818;BME280;7500;57.698;11.986;2022-11-04T00:34:52;100668.53;;;14.26;100.00
14818;BME280;7500;57.698;11.986;2022-11-04T00:37:19;100675.03;;;14.08;100.00
14818;BME280;7500;57.698;11.986;2022-11-04T00:39:46;100679.47;;;14.21;100.00
14818;BME280;7500;57.698;11.986;2022-11-04T00:42:13;100668.09;;;14.19;100.00
14818;BME280;7500;57.698;11.986;2022-11-04T00:44:40;100672.06;;;14.12;100.00
14818;BME280;7500;57.698;11.986;2022-11-04T00:47:06;100673.44;;;14.05;100.00
14818;BME280;7500;57.698;11.986;2022-11-04T00:49:33;100662.81;;;13.93;100.00
14818;BME280;7500;57.698;11.986;2022-11-04T00:52:01;100659.09;;;14.08;100.00
14818;BME280;7500;57.698;11.986;2022-11-04T00:54:28;100647.16;;;14.15;100.00
14818;BME280;7500;57.698;11.986;2022-11-04T00:56:55;100657.19;;;13.97;100.00
14818;BME280;7500;57.698;11.986;2022-11-04T00:59:22;100656.31;;;13.97;100.00
14818;BME280;7500;57.698;11.986;2022-11-04T01:01:48;100658.13;;;13.70;100.00
14818;BME280;7500;57.698;11.986;2022-11-04T01:04:15;100668.81;;;13.95;100.00
14818;BME280;7500;57.698;11.986;2022-11-04T01:06:42;100666.28;;;13.93;100.00
14818;BME280;7500;57.698;11.986;2022-11-04T01:09:11;100668.75;;;13.96;100.00
14818;BME280;7500;57.698;11.986;2022-11-04T01:11:39;100656.84;;;14.02;100.00
14818;BME280;7500;57.698;11.986;2022-11-04T01:14:06;100653.34;;;13.89;100.00
14818;BME280;7500;57.698;11.986;2022-11-04T01:16:33;100648.13;;;13.87;100.00
14818;BME280;7500;57.698;11.986;2022-11-04T01:19:00;100642.41;;;13.93;100.00
14818;BME280;7500;57.698;11.986;2022-11-04T01:21:27;100654.47;;;13.85;100.00
14818;BME280;7500;57.698;11.986;2022-11-04T01:23:54;100641.97;;;13.87;100.00
14818;BME280;7500;57.698;11.986;2022-11-04T01:26:23;100640.66;;;13.80;100.00
14818;BME280;7500;57.698;11.986;2022-11-04T01:28:52;100639.88;;;13.92;100.00
14818;BME280;7500;57.698;11.986;2022-11-04T01:31:22;100621.81;;;13.97;100.00
14818;BME280;7500;57.698;11.986;2022-11-04T01:33:50;100624.66;;;13.94;100.00
14818;BME280;7500;57.698;11.986;2022-11-04T01:36:18;100613.84;;;13.97;100.00
14818;BME280;7500;57.698;11.986;2022-11-04T01:38:45;100622.47;;;14.00;100.00
14818;BME280;7500;57.698;11.986;2022-11-04T01:41:18;100608.53;;;13.97;100.00
14818;BME280;7500;57.698;11.986;2022-11-04T01:43:48;100603.22;;;13.97;100.00
14818;BME280;7500;57.698;11.986;2022-11-04T01:46:28;100608.63;;;13.83;100.00
14818;BME280;7500;57.698;11.986;2022-11-04T01:49:01;100598.53;;;13.75;100.00
14818;BME280;7500;57.698;11.986;2022-11-04T01:51:32;100601.28;;;13.86;100.00
14818;BME280;7500;57.698;11.986;2022-11-04T01:54:02;100613.00;;;13.96;100.00
14818;BME280;7500;57.698;11.986;2022-11-04T01:56:30;100589.09;;;13.84;100.00
14818;BME280;7500;57.698;11.986;2022-11-04T01:59:05;100590.13;;;13.81;100.00
14818;BME280;7500;57.698;11.986;2022-11-04T02:01:33;100591.44;;;14.01;100.00
14818;BME280;7500;57.698;11.986;2022-11-04T02:04:00;100587.22;;;13.98;100.00
14818;BME280;7500;57.698;11.986;2022-11-04T02:06:41;100583.66;;;13.85;100.00
14818;BME280;7500;57.698;11.986;2022-11-04T02:09:08;100577.72;;;13.82;100.00
14818;BME280;7500;57.698;11.986;2022-11-04T02:11:35;100573.50;;;13.92;100.00
14818;BME280;7500;57.698;11.986;2022-11-04T02:14:20;100567.66;;;13.87;100.00
14818;BME280;7500;57.698;11.986;2022-11-04T02:16:47;100574.66;;;13.88;100.00
14818;BME280;7500;57.698;11.986;2022-11-04T02:19:32;100564.25;;;13.85;100.00
14818;BME280;7500;57.698;11.986;2022-11-04T02:22:22;100581.75;;;13.75;100.00
14818;BME280;7500;57.698;11.986;2022-11-04T02:25:08;100566.97;;;13.71;100.00
14818;BME280;7500;57.698;11.986;2022-11-04T02:27:47;100561.47;;;13.74;100.00
14818;BME280;7500;57.698;11.986;2022-11-04T02:30:25;100557.34;;;13.82;100.00
14818;BME280;7500;57.698;11.986;2022-11-04T02:33:15;100564.81;;;13.90;100.00
14818;BME280;7500;57.698;11.986;2022-11-04T02:35:52;100560.69;;;14.11;100.00
14818;BME280;7500;57.698;11.986;2022-11-04T02:38:30;100554.28;;;14.01;100.00
14818;BME280;7500;57.698;11.986;2022-11-04T02:41:06;100554.06;;;13.91;100.00
14818;BME280;7500;57.698;11.986;2022-11-04T02:43:44;100544.09;;;13.95;100.00
14818;BME280;7500;57.698;11.986;2022-11-04T02:46:18;100557.59;;;13.92;100.00
14818;BME280;7500;57.698;11.986;2022-11-04T02:48:52;100542.84;;;14.00;100.00
14818;BME280;7500;57.698;11.986;2022-11-04T02:51:25;100539.56;;;14.09;100.00
14818;BME280;7500;57.698;11.986;2022-11-04T02:54:00;100508.00;;;13.92;100.00
14818;BME280;7500;57.698;11.986;2022-11-04T02:56:31;100530.94;;;14.06;100.00
14818;BME280;7500;57.698;11.986;2022-11-04T02:59:03;100532.78;;;14.30;100.00
14818;BME280;7500;57.698;11.986;2022-11-04T03:01:35;100522.16;;;14.18;100.00
14818;BME280;7500;57.698;11.986;2022-11-04T03:04:07;100527.56;;;14.41;100.00
14818;BME280;7500;57.698;11.986;2022-11-04T03:06:35;100522.00;;;13.94;100.00
14818;BME280;7500;57.698;11.986;2022-11-04T03:09:03;100528.81;;;14.11;100.00
14818;BME280;7500;57.698;11.986;2022-11-04T03:11:30;100528.31;;;14.31;100.00
14818;BME280;7500;57.698;11.986;2022-11-04T03:14:00;100521.00;;;14.22;100.00
14818;BME280;7500;57.698;11.986;2022-11-04T03:16:40;100516.09;;;14.16;100.00
14818;BME280;7500;57.698;11.986;2022-11-04T03:19:13;100522.25;;;14.29;100.00
14818;BME280;7500;57.698;11.986;2022-11-04T03:21:48;100521.09;;;14.33;100.00
14818;BME280;7500;57.698;11.986;2022-11-04T03:24:17;100519.94;;;14.24;100.00
14818;BME280;7500;57.698;11.986;2022-11-04T03:26:47;100516.72;;;14.19;100.00
14818;BME280;7500;57.698;11.986;2022-11-04T03:29:21;100520.13;;;14.21;100.00
14818;BME280;7500;57.698;11.986;2022-11-04T03:32:02;100502.09;;;14.14;100.00
14818;BME280;7500;57.698;11.986;2022-11-04T03:34:30;100524.59;;;14.08;100.00
14818;BME280;7500;57.698;11.986;2022-11-04T03:36:58;100512.28;;;14.20;100.00
14818;BME280;7500;57.698;11.986;2022-11-04T03:39:25;100516.28;;;14.13;100.00
14818;BME280;7500;57.698;11.986;2022-11-04T03:41:54;100509.41;;;14.35;100.00
14818;BME280;7500;57.698;11.986;2022-11-04T03:44:22;100517.25;;;14.37;100.00
14818;BME280;7500;57.698;11.986;2022-11-04T03:46:50;100510.22;;;14.11;100.00
14818;BME280;7500;57.698;11.986;2022-11-04T03:49:20;100509.84;;;13.41;100.00
14818;BME280;7500;57.698;11.986;2022-11-04T03:51:48;100507.25;;;13.90;100.00
14818;BME280;7500;57.698;11.986;2022-11-04T03:54:15;100485.38;;;13.87;100.00
14818;BME280;7500;57.698;11.986;2022-11-04T03:57:01;100484.66;;;13.85;100.00
14818;BME280;7500;57.698;11.986;2022-11-04T03:59:54;100495.69;;;13.91;100.00
14818;BME280;7500;57.698;11.986;2022-11-04T04:02:58;100485.06;;;13.79;100.00
14818;BME280;7500;57.698;11.986;2022-11-04T04:05:30;100483.34;;;13.78;100.00
14818;BME280;7500;57.698;11.986;2022-11-04T04:08:06;100488.88;;;13.75;100.00
14818;BME280;7500;57.698;11.986;2022-11-04T04:10:39;100486.63;;;13.81;100.00
14818;BME280;7500;57.698;11.986;2022-11-04T04:13:16;100484.84;;;13.82;100.00
14818;BME280;7500;57.698;11.986;2022-11-04T04:15:49;100491.31;;;13.78;100.00
14818;BME280;7500;57.698;11.986;2022-11-04T04:18:24;100487.28;;;13.72;100.00
14818;BME280;7500;57.698;11.986;2022-11-04T04:20:55;100485.25;;;13.76;100.00
14818;BME280;7500;57.698;11.986;2022-11-04T04:23:26;100493.47;;;14.10;100.00
14818;BME280;7500;57.698;11.986;2022-11-04T04:26:14;100493.22;;;14.01;100.00
14818;BME280;7500;57.698;11.986;2022-11-04T04:29:00;100490.91;;;14.09;100.00
14818;BME280;7500;57.698;11.986;2022-11-04T04:31:31;100495.25;;;14.10;100.00
14818;BME280;7500;57.698;11.986;2022-11-04T04:34:23;100484.31;;;14.02;100.00
14818;BME280;7500;57.698;11.986;2022-11-04T04:36:56;100483.38;;;14.03;100.00
14818;BME280;7500;57.698;11.986;2022-11-04T04:39:28;100482.94;;;14.09;100.00
14818;BME280;7500;57.698;11.986;2022-11-04T04:42:15;100482.84;;;14.10;100.00
14818;BME280;7500;57.698;11.986;2022-11-04T04:45:01;100487.09;;;14.00;100.00
14818;BME280;7500;57.698;11.986;2022-11-04T04:47:39;100493.25;;;14.13;100.00
14818;BME280;7500;57.698;11.986;2022-11-04T04:50:08;100498.88;;;14.09;100.00
14818;BME280;7500;57.698;11.986;2022-11-04T04:52:38;100492.19;;;13.91;100.00
14818;BME280;7500;57.698;11.986;2022-11-04T04:55:07;100478.94;;;13.91;100.00
14818;BME280;7500;57.698;11.986;2022-11-04T04:57:34;100491.31;;;14.03;100.00
14818;BME280;7500;57.698;11.986;2022-11-04T05:00:01;100493.22;;;13.88;100.00
14818;BME280;7500;57.698;11.986;2022-11-04T05:02:27;100491.53;;;14.00;100.00
14818;BME280;7500;57.698;11.986;2022-11-04T05:04:54;100489.28;;;13.69;100.00
14818;BME280;7500;57.698;11.986;2022-11-04T05:07:23;100488.25;;;14.09;100.00
14818;BME280;7500;57.698;11.986;2022-11-04T05:09:51;100492.09;;;14.17;100.00
14818;BME280;7500;57.698;11.986;2022-11-04T05:12:18;100486.34;;;14.23;100.00
14818;BME280;7500;57.698;11.986;2022-11-04T05:14:45;100488.94;;;14.25;100.00
14818;BME280;7500;57.698;11.986;2022-11-04T05:17:13;100489.34;;;14.19;100.00
14818;BME280;7500;57.698;11.986;2022-11-04T05:19:40;100478.72;;;14.19;100.00
14818;BME280;7500;57.698;11.986;2022-11-04T05:22:07;100497.09;;;14.22;100.00
14818;BME280;7500;57.698;11.986;2022-11-04T05:24:33;100487.09;;;14.13;100.00
14818;BME280;7500;57.698;11.986;2022-11-04T05:27:02;100502.09;;;14.14;100.00
14818;BME280;7500;57.698;11.986;2022-11-04T05:29:28;100486.78;;;14.17;100.00
14818;BME280;7500;57.698;11.986;2022-11-04T05:31:55;100492.22;;;14.16;100.00
14818;BME280;7500;57.698;11.986;2022-11-04T05:34:22;100482.56;;;14.15;100.00
14818;BME280;7500;57.698;11.986;2022-11-04T05:36:49;100485.00;;;14.18;100.00
14818;BME280;7500;57.698;11.986;2022-11-04T05:39:16;100484.56;;;14.24;100.00
14818;BME280;7500;57.698;11.986;2022-11-04T05:41:43;100486.28;;;14.25;100.00
14818;BME280;7500;57.698;11.986;2022-11-04T05:44:11;100485.94;;;14.29;100.00
14818;BME280;7500;57.698;11.986;2022-11-04T05:46:38;100489.34;;;14.19;100.00
14818;BME280;7500;57.698;11.986;2022-11-04T05:49:05;100486.00;;;14.03;100.00
14818;BME280;7500;57.698;11.986;2022-11-04T05:51:32;100485.28;;;14.01;100.00
14818;BME280;7500;57.698;11.986;2022-11-04T05:53:59;100487.16;;;14.11;100.00
14818;BME280;7500;57.698;11.986;2022-11-04T05:56:26;100473.22;;;14.22;100.00
14818;BME280;7500;57.698;11.986;2022-11-04T05:58:53;100466.19;;;14.21;100.00
14818;BME280;7500;57.698;11.986;2022-11-04T06:01:28;100481.44;;;14.05;100.00
14818;BME280;7500;57.698;11.986;2022-11-04T06:03:57;100475.00;;;13.84;100.00
14818;BME280;7500;57.698;11.986;2022-11-04T06:06:26;100482.63;;;13.25;100.00
14818;BME280;7500;57.698;11.986;2022-11-04T06:08:53;100487.75;;;13.40;100.00
14818;BME280;7500;57.698;11.986;2022-11-04T06:11:22;100486.28;;;13.61;100.00
14818;BME280;7500;57.698;11.986;2022-11-04T06:13:52;100492.50;;;13.99;100.00
14818;BME280;7500;57.698;11.986;2022-11-04T06:16:20;100493.69;;;14.20;100.00
14818;BME280;7500;57.698;11.986;2022-11-04T06:18:48;100496.44;;;13.30;100.00
14818;BME280;7500;57.698;11.986;2022-11-04T06:21:24;100515.03;;;13.16;100.00
14818;BME280;7500;57.698;11.986;2022-11-04T06:23:52;100508.97;;;13.40;100.00
14818;BME280;7500;57.698;11.986;2022-11-04T06:26:21;100440.34;;;13.48;100.00
14818;BME280;7500;57.698;11.986;2022-11-04T06:28:48;100501.22;;;14.13;100.00
14818;BME280;7500;57.698;11.986;2022-11-04T06:31:15;100495.88;;;13.88;100.00
14818;BME280;7500;57.698;11.986;2022-11-04T06:33:43;100491.13;;;13.81;100.00
14818;BME280;7500;57.698;11.986;2022-11-04T06:36:13;100481.44;;;13.80;100.00
14818;BME280;7500;57.698;11.986;2022-11-04T06:38:40;100477.22;;;13.90;100.00
14818;BME280;7500;57.698;11.986;2022-11-04T06:41:10;100471.16;;;13.88;100.00
14818;BME280;7500;57.698;11.986;2022-11-04T06:43:38;100474.78;;;13.87;100.00
14818;BME280;7500;57.698;11.986;2022-11-04T06:46:05;100473.44;;;13.04;100.00
14818;BME280;7500;57.698;11.986;2022-11-04T06:48:32;100478.78;;;13.55;100.00
14818;BME280;7500;57.698;11.986;2022-11-04T06:50:59;100484.53;;;13.74;100.00
14818;BME280;7500;57.698;11.986;2022-11-04T06:53:27;100471.06;;;13.89;100.00
14818;BME280;7500;57.698;11.986;2022-11-04T06:56:00;100479.75;;;13.91;100.00
14818;BME280;7500;57.698;11.986;2022-11-04T06:58:28;100478.38;;;13.98;100.00
14818;BME280;7500;57.698;11.986;2022-11-04T07:00:55;100479.44;;;13.96;100.00
14818;BME280;7500;57.698;11.986;2022-11-04T07:03:22;100477.22;;;13.90;100.00
14818;BME280;7500;57.698;11.986;2022-11-04T07:05:48;100467.34;;;13.92;100.00
14818;BME280;7500;57.698;11.986;2022-11-04T07:08:15;100466.91;;;13.73;100.00
14818;BME280;7500;57.698;11.986;2022-11-04T07:10:44;100459.81;;;13.73;100.00
14818;BME280;7500;57.698;11.986;2022-11-04T07:13:11;100463.41;;;13.85;100.00
14818;BME280;7500;57.698;11.986;2022-11-04T07:15:38;100465.00;;;14.00;100.00
14818;BME280;7500;57.698;11.986;2022-11-04T07:18:05;100462.03;;;14.04;100.00
14818;BME280;7500;57.698;11.986;2022-11-04T07:20:32;100452.78;;;13.97;100.00
14818;BME280;7500;57.698;11.986;2022-11-04T07:22:59;100462.78;;;14.06;100.00
14818;BME280;7500;57.698;11.986;2022-11-04T07:25:26;100461.41;;;14.13;100.00
14818;BME280;7500;57.698;11.986;2022-11-04T07:27:55;100462.38;;;14.25;100.00
14818;BME280;7500;57.698;11.986;2022-11-04T07:30:22;100461.41;;;14.13;100.00
14818;BME280;7500;57.698;11.986;2022-11-04T07:32:48;100459.28;;;14.18;100.00
14818;BME280;7500;57.698;11.986;2022-11-04T07:35:15;100458.66;;;14.15;100.00
14818;BME280;7500;57.698;11.986;2022-11-04T07:37:42;100463.41;;;14.22;100.00
14818;BME280;7500;57.698;11.986;2022-11-04T07:40:10;100470.38;;;14.48;100.00
14818;BME280;7500;57.698;11.986;2022-11-04T07:42:37;100465.06;;;14.48;100.00
14818;BME280;7500;57.698;11.986;2022-11-04T07:45:06;100472.88;;;14.26;100.00
14818;BME280;7500;57.698;11.986;2022-11-04T07:47:33;100464.78;;;14.28;100.00
14818;BME280;7500;57.698;11.986;2022-11-04T07:50:00;100468.72;;;14.35;100.00
14818;BME280;7500;57.698;11.986;2022-11-04T07:52:34;100472.28;;;14.46;100.00
14818;BME280;7500;57.698;11.986;2022-11-04T07:55:00;100477.00;;;14.43;100.00
14818;BME280;7500;57.698;11.986;2022-11-04T07:57:27;100473.78;;;14.50;100.00
14818;BME280;7500;57.698;11.986;2022-11-04T07:59:54;100480.47;;;14.56;100.00
14818;BME280;7500;57.698;11.986;2022-11-04T08:02:23;100443.31;;;14.43;100.00
14818;BME280;7500;57.698;11.986;2022-11-04T08:04:49;100475.88;;;14.70;100.00
14818;BME280;7500;57.698;11.986;2022-11-04T08:07:16;100465.78;;;14.63;100.00
14818;BME280;7500;57.698;11.986;2022-11-04T08:09:43;100465.41;;;14.79;100.00
14818;BME280;7500;57.698;11.986;2022-11-04T08:12:10;100452.78;;;14.70;100.00
14818;BME280;7500;57.698;11.986;2022-11-04T08:14:37;100466.19;;;14.69;100.00
14818;BME280;7500;57.698;11.986;2022-11-04T08:17:04;100455.75;;;14.78;100.00
14818;BME280;7500;57.698;11.986;2022-11-04T08:19:32;100460.84;;;14.81;100.00
14818;BME280;7500;57.698;11.986;2022-11-04T08:21:59;100453.31;;;14.99;100.00
14818;BME280;7500;57.698;11.986;2022-11-04T08:24:26;100454.72;;;14.92;100.00
14818;BME280;7500;57.698;11.986;2022-11-04T08:26:53;100458.25;;;14.92;100.00
14818;BME280;7500;57.698;11.986;2022-11-04T08:29:20;100449.41;;;14.92;100.00
14818;BME280;7500;57.698;11.986;2022-11-04T08:31:46;100445.19;;;14.89;100.00
14818;BME280;7500;57.698;11.986;2022-11-04T08:34:13;100439.19;;;14.75;100.00
14818;BME280;7500;57.698;11.986;2022-11-04T08:36:44;100430.69;;;14.70;100.00
14818;BME280;7500;57.698;11.986;2022-11-04T08:39:12;100442.06;;;14.72;100.00
14818;BME280;7500;57.698;11.986;2022-11-04T08:41:41;100425.38;;;14.93;100.00
14818;BME280;7500;57.698;11.986;2022-11-04T08:44:10;100439.88;;;14.89;100.00
14818;BME280;7500;57.698;11.986;2022-11-04T08:46:38;100433.47;;;14.92;100.00
14818;BME280;7500;57.698;11.986;2022-11-04T08:49:05;100427.69;;;14.74;100.00
14818;BME280;7500;57.698;11.986;2022-11-04T08:51:33;100435.88;;;14.71;100.00
14818;BME280;7500;57.698;11.986;2022-11-04T08:54:04;100432.50;;;14.69;100.00
14818;BME280;7500;57.698;11.986;2022-11-04T08:56:32;100431.69;;;14.80;100.00
14818;BME280;7500;57.698;11.986;2022-11-04T08:59:00;100426.34;;;14.69;100.00
14818;BME280;7500;57.698;11.986;2022-11-04T09:01:30;100419.19;;;14.69;100.00
14818;BME280;7500;57.698;11.986;2022-11-04T09:03:57;100416.72;;;14.79;100.00
14818;BME280;7500;57.698;11.986;2022-11-04T09:06:25;100411.06;;;14.83;100.00
14818;BME280;7500;57.698;11.986;2022-11-04T09:08:53;100424.59;;;14.80;100.00
14818;BME280;7500;57.698;11.986;2022-11-04T09:11:24;100410.72;;;14.88;100.00
14818;BME280;7500;57.698;11.986;2022-11-04T09:13:50;100412.81;;;14.95;100.00
14818;BME280;7500;57.698;11.986;2022-11-04T09:16:17;100413.22;;;15.02;100.00
14818;BME280;7500;57.698;11.986;2022-11-04T09:18:44;100414.56;;;14.84;100.00
14818;BME280;7500;57.698;11.986;2022-11-04T09:21:11;100434.13;;;14.83;100.00
14818;BME280;7500;57.698;11.986;2022-11-04T09:23:38;100409.09;;;14.74;100.00
14818;BME280;7500;57.698;11.986;2022-11-04T09:26:07;100410.00;;;14.86;100.00
14818;BME280;7500;57.698;11.986;2022-11-04T09:28:37;100411.38;;;14.91;100.00
14818;BME280;7500;57.698;11.986;2022-11-04T09:31:05;100415.00;;;15.01;100.00
14818;BME280;7500;57.698;11.986;2022-11-04T09:33:32;100406.81;;;15.04;100.00
14818;BME280;7500;57.698;11.986;2022-11-04T09:35:59;100426.31;;;15.16;100.00
14818;BME280;7500;57.698;11.986;2022-11-04T09:38:26;100410.88;;;15.21;100.00
14818;BME280;7500;57.698;11.986;2022-11-04T09:40:53;100409.59;;;15.26;100.00
14818;BME280;7500;57.698;11.986;2022-11-04T09:43:43;100415.22;;;15.22;100.00
14818;BME280;7500;57.698;11.986;2022-11-04T09:46:13;100437.97;;;15.26;100.00
14818;BME280;7500;57.698;11.986;2022-11-04T09:48:43;100409.81;;;15.23;100.00
14818;BME280;7500;57.698;11.986;2022-11-04T09:51:11;100406.81;;;15.28;100.00
14818;BME280;7500;57.698;11.986;2022-11-04T09:53:41;100404.53;;;15.34;100.00
14818;BME280;7500;57.698;11.986;2022-11-04T09:56:15;100389.06;;;15.28;100.00
14818;BME280;7500;57.698;11.986;2022-11-04T09:58:45;100395.03;;;15.19;100.00
14818;BME280;7500;57.698;11.986;2022-11-04T10:01:24;100404.56;;;15.22;100.00
14818;BME280;7500;57.698;11.986;2022-11-04T10:04:09;100393.34;;;15.18;100.00
14818;BME280;7500;57.698;11.986;2022-11-04T10:06:44;100396.72;;;15.20;100.00
14818;BME280;7500;57.698;11.986;2022-11-04T10:09:24;100391.59;;;15.30;100.00
14818;BME280;7500;57.698;11.986;2022-11-04T10:12:03;100393.84;;;15.23;100.00
14818;BME280;7500;57.698;11.986;2022-11-04T10:14:58;100391.22;;;15.34;100.00
14818;BME280;7500;57.698;11.986;2022-11-04T10:17:47;100386.09;;;15.20;100.00
14818;BME280;7500;57.698;11.986;2022-11-04T10:20:36;100395.06;;;15.30;100.00
14818;BME280;7500;57.698;11.986;2022-11-04T10:23:17;100391.00;;;15.37;100.00
14818;BME280;7500;57.698;11.986;2022-11-04T10:25:48;100404.16;;;15.28;100.00
14818;BME280;7500;57.698;11.986;2022-11-04T10:28:17;100403.78;;;15.32;100.00
14818;BME280;7500;57.698;11.986;2022-11-04T10:30:47;100397.75;;;15.30;100.00
14818;BME280;7500;57.698;11.986;2022-11-04T10:33:23;100410.34;;;15.16;100.00
14818;BME280;7500;57.698;11.986;2022-11-04T10:35:53;100395.25;;;15.16;100.00
14818;BME280;7500;57.698;11.986;2022-11-04T10:38:28;100397.75;;;15.30;100.00
14818;BME280;7500;57.698;11.986;2022-11-04T10:40:58;100357.16;;;15.16;100.00
14818;BME280;7500;57.698;11.986;2022-11-04T10:43:28;100390.75;;;15.29;100.00
14818;BME280;7500;57.698;11.986;2022-11-04T10:46:08;100373.47;;;15.35;100.00
14818;BME280;7500;57.698;11.986;2022-11-04T10:48:42;100377.69;;;15.37;100.00
14818;BME280;7500;57.698;11.986;2022-11-04T10:51:15;100382.25;;;15.24;100.00
14818;BME280;7500;57.698;11.986;2022-11-04T10:53:46;100388.56;;;15.34;100.00
14818;BME280;7500;57.698;11.986;2022-11-04T10:56:24;100377.19;;;15.32;100.00
14818;BME280;7500;57.698;11.986;2022-11-04T10:58:54;100385.31;;;15.31;100.00
14818;BME280;7500;57.698;11.986;2022-11-04T11:01:25;100390.09;;;15.26;100.00
14818;BME280;7500;57.698;11.986;2022-11-04T11:03:53;100383.00;;;15.37;100.00
14818;BME280;7500;57.698;11.986;2022-11-04T11:06:23;100372.28;;;15.50;100.00
14818;BME280;7500;57.698;11.986;2022-11-04T11:08:54;100380.38;;;15.48;100.00
14818;BME280;7500;57.698;11.986;2022-11-04T11:11:39;100370.75;;;15.58;100.00
14818;BME280;7500;57.698;11.986;2022-11-04T11:14:17;100299.91;;;15.23;100.00
14818;BME280;7500;57.698;11.986;2022-11-04T11:16:45;100374.59;;;15.65;100.00
14818;BME280;7500;57.698;11.986;2022-11-04T11:19:15;100371.81;;;15.56;100.00
14818;BME280;7500;57.698;11.986;2022-11-04T11:21:44;100375.94;;;15.60;100.00
14818;BME280;7500;57.698;11.986;2022-11-04T11:24:14;100376.53;;;15.52;100.00
14818;BME280;7500;57.698;11.986;2022-11-04T11:26:42;100384.00;;;15.47;100.00
14818;BME280;7500;57.698;11.986;2022-11-04T11:29:18;100377.13;;;15.45;100.00
14818;BME280;7500;57.698;11.986;2022-11-04T11:31:49;100387.41;;;15.49;100.00
14818;BME280;7500;57.698;11.986;2022-11-04T11:34:20;100387.63;;;15.46;100.00
14818;BME280;7500;57.698;11.986;2022-11-04T11:36:51;100394.88;;;15.44;100.00
14818;BME280;7500;57.698;11.986;2022-11-04T11:39:20;100397.03;;;15.39;100.00
14818;BME280;7500;57.698;11.986;2022-11-04T11:41:51;100392.50;;;15.52;100.00
14818;BME280;7500;57.698;11.986;2022-11-04T11:44:23;100386.81;;;15.57;100.00
14818;BME280;7500;57.698;11.986;2022-11-04T11:46:56;100391.53;;;15.53;100.00
14818;BME280;7500;57.698;11.986;2022-11-04T11:49:28;100386.91;;;15.44;100.00
14818;BME280;7500;57.698;11.986;2022-11-04T11:55:03;100395.34;;;15.27;100.00
14818;BME280;7500;57.698;11.986;2022-11-04T11:57:37;100391.88;;;15.14;100.00
14818;BME280;7500;57.698;11.986;2022-11-04T12:00:09;100389.94;;;15.16;100.00
14818;BME280;7500;57.698;11.986;2022-11-04T12:02:50;100383.63;;;15.06;100.00
14818;BME280;7500;57.698;11.986;2022-11-04T12:05:25;100392.22;;;15.10;100.00
14818;BME280;7500;57.698;11.986;2022-11-04T12:07:55;100393.97;;;14.98;100.00
14818;BME280;7500;57.698;11.986;2022-11-04T12:10:30;100389.00;;;14.94;100.00
14818;BME280;7500;57.698;11.986;2022-11-04T12:13:06;100380.34;;;15.03;100.00
14818;BME280;7500;57.698;11.986;2022-11-04T12:15:52;100389.91;;;15.05;100.00
14818;BME280;7500;57.698;11.986;2022-11-04T12:21:38;100382.56;;;15.09;100.00
14818;BME280;7500;57.698;11.986;2022-11-04T12:24:18;100378.94;;;15.10;100.00
14818;BME280;7500;57.698;11.986;2022-11-04T12:26:54;100387.97;;;15.07;100.00
14818;BME280;7500;57.698;11.986;2022-11-04T12:29:37;100373.94;;;15.05;100.00
14818;BME280;7500;57.698;11.986;2022-11-04T12:32:16;100377.47;;;15.06;100.00
14818;BME280;7500;57.698;11.986;2022-11-04T12:34:57;100369.09;;;14.99;100.00
14818;BME280;7500;57.698;11.986;2022-11-04T12:37:36;100381.63;;;14.86;100.00
14818;BME280;7500;57.698;11.986;2022-11-04T12:40:11;100372.09;;;14.71;100.00
14818;BME280;7500;57.698;11.986;2022-11-04T12:42:51;100379.69;;;14.65;100.00
14818;BME280;7500;57.698;11.986;2022-11-04T12:45:28;100381.59;;;14.63;100.00
14818;BME280;7500;57.698;11.986;2022-11-04T12:48:02;100381.16;;;14.69;100.00
14818;BME280;7500;57.698;11.986;2022-11-04T12:50:53;100381.25;;;14.68;100.00
14818;BME280;7500;57.698;11.986;2022-11-04T12:53:45;100371.59;;;14.67;100.00
14818;BME280;7500;57.698;11.986;2022-11-04T12:56:17;100362.06;;;14.64;100.00
14818;BME280;7500;57.698;11.986;2022-11-04T12:59:05;100362.00;;;14.76;100.00
14818;BME280;7500;57.698;11.986;2022-11-04T13:01:37;100351.06;;;14.68;100.00
14818;BME280;7500;57.698;11.986;2022-11-04T13:04:11;100344.28;;;14.65;100.00
14818;BME280;7500;57.698;11.986;2022-11-04T13:06:41;100342.88;;;14.71;100.00
14818;BME280;7500;57.698;11.986;2022-11-04T13:09:13;100357.41;;;14.78;100.00